This is the latest recevied weather packets stored in our database for station/object KA5ZCI. If no packets are shown the sender has not sent any weather packets the latest 10 day(s).
| Time | Temp. | Humidity | Pressure | Rain* | Wind** | Luminosity | Snow |
|---|---|---|---|---|---|---|---|
| 1778030404 | 24.44° C | 77% | 1011.9 hPa | 0 mm | - | 0 W/m² | - |
| 1778029503 | 24.44° C | 76% | 1011.8 hPa | 0 mm | - | 0 W/m² | - |
| 1778028303 | 25° C | 73% | 1011.9 hPa | 0 mm | - | 0 W/m² | - |
| 1778028004 | 25° C | 73% | 1011.9 hPa | 0 mm | - | 0 W/m² | - |
| 1778026804 | 25.56° C | 72% | 1012 hPa | 0 mm | - | 0 W/m² | - |
| 1778023504 | 26.67° C | 68% | 1011.9 hPa | 0 mm | - | 0 W/m² | - |
| 1778022604 | 26.67° C | 68% | 1011.9 hPa | 0 mm | - | 0 W/m² | - |
| 1778017804 | 27.22° C | 64% | 1012 hPa | 0 mm | - | 0 W/m² | - |
| 1778016603 | 27.78° C | 64% | 1012 hPa | 0 mm | - | 0 W/m² | - |
| 1778013903 | 28.89° C | 59% | 1012.5 hPa | 0 mm | - | 0 W/m² | - |
| 1778013604 | 28.89° C | 58% | 1012.4 hPa | 0 mm | - | 0 W/m² | - |
| 1778012104 | 28.89° C | 56% | 1012.2 hPa | 0 mm | - | 0 W/m² | - |
| 1778008804 | 29.44° C | 53% | 1012.4 hPa | 0 mm | - | 0 W/m² | - |
| 1778007304 | 29.44° C | 53% | 1012.8 hPa | 0 mm | - | 0 W/m² | - |
| 1778004904 | 28.33° C | 54% | 1012.9 hPa | 0 mm | - | 0 W/m² | - |
| 1778004304 | 28.33° C | 53% | 1013.2 hPa | 0 mm | - | 0 W/m² | - |
| 1778004004 | 28.89° C | 52% | 1013.3 hPa | 0 mm | - | 0 W/m² | - |
| 1778003104 | 28.33° C | 53% | 1013.2 hPa | 0 mm | - | 0 W/m² | - |
| 1778001904 | 28.33° C | 54% | 1013.5 hPa | 0 mm | - | 0 W/m² | - |
| 1778000704 | 27.78° C | 52% | 1013.8 hPa | 0 mm | - | 0 W/m² | - |
| 1777995304 | 26.67° C | 58% | 1013.7 hPa | 0 mm | - | 0 W/m² | - |
| 1777994704 | 26.11° C | 61% | 1013.6 hPa | 0 mm | - | 0 W/m² | - |
| 1777993204 | 25° C | 63% | 1013.7 hPa | 0 mm | - | 0 W/m² | - |
| 1777990804 | 24.44° C | 65% | 1013.6 hPa | 0 mm | - | 0 W/m² | - |
| 1777989304 | 23.33° C | 70% | 1013.6 hPa | 0 mm | - | 0 W/m² | - |
* Rain latest hour (hover to see other rain measurements)
** Current wind speed in m/s (hover to see current wind gust speed)